createdAt,value
2022-12-18T00:01:36.882Z,75.54
2022-12-18T00:04:07.034Z,75.68
2022-12-18T00:06:34.743Z,76.08
2022-12-18T00:09:02.039Z,75.60
2022-12-18T00:11:31.093Z,75.60
2022-12-18T00:13:59.218Z,75.50
2022-12-18T00:16:27.545Z,74.87
2022-12-18T00:18:57.422Z,74.64
2022-12-18T00:21:24.342Z,74.92
2022-12-18T00:23:51.349Z,74.84
2022-12-18T00:26:29.592Z,73.75
2022-12-18T00:29:00.385Z,73.50
2022-12-18T00:31:27.327Z,73.70
2022-12-18T00:33:57.445Z,74.17
2022-12-18T00:36:29.695Z,74.84
2022-12-18T00:38:57.741Z,75.19
2022-12-18T00:41:25.402Z,75.73
2022-12-18T00:43:51.854Z,75.25
2022-12-18T00:46:18.224Z,75.26
2022-12-18T00:48:44.758Z,74.51
2022-12-18T00:51:11.592Z,73.80
2022-12-18T00:53:38.245Z,73.99
2022-12-18T00:56:05.232Z,74.44
2022-12-18T00:58:31.937Z,74.84
2022-12-18T01:00:58.347Z,75.28
2022-12-18T01:03:25.086Z,75.88
2022-12-18T01:05:51.412Z,75.91
2022-12-18T01:08:17.872Z,76.09
2022-12-18T01:10:44.319Z,76.00
2022-12-18T01:13:11.488Z,76.36
2022-12-18T01:15:37.803Z,76.84
2022-12-18T01:18:05.890Z,76.85
2022-12-18T01:20:32.230Z,76.83
2022-12-18T01:22:58.896Z,76.85
2022-12-18T01:25:25.383Z,76.77
2022-12-18T01:27:51.715Z,76.68
2022-12-18T01:30:18.171Z,76.99
2022-12-18T01:32:44.516Z,76.57
2022-12-18T01:35:11.200Z,76.18
2022-12-18T01:37:38.707Z,76.09
2022-12-18T01:40:05.599Z,75.52
2022-12-18T01:42:32.016Z,76.11
2022-12-18T01:45:12.666Z,75.89
2022-12-18T01:47:49.357Z,75.82
2022-12-18T01:50:24.001Z,75.44
2022-12-18T01:53:00.077Z,75.68
2022-12-18T01:55:30.955Z,75.63
2022-12-18T01:57:59.754Z,75.56
2022-12-18T02:00:27.405Z,75.29
2022-12-18T02:02:56.074Z,75.22
2022-12-18T02:05:29.981Z,75.41
2022-12-18T02:08:09.516Z,75.08
2022-12-18T02:11:13.706Z,74.49
2022-12-18T02:14:11.195Z,73.52
2022-12-18T02:16:47.318Z,73.69
2022-12-18T02:19:33.173Z,73.89
2022-12-18T02:22:30.549Z,73.87
2022-12-18T02:25:22.920Z,73.81
2022-12-18T02:27:51.748Z,73.75
2022-12-18T02:30:19.821Z,73.58
2022-12-18T02:32:50.837Z,73.43
2022-12-18T02:35:30.128Z,73.43
2022-12-18T02:37:58.385Z,73.67
2022-12-18T02:40:27.627Z,72.84
2022-12-18T02:42:54.049Z,73.17
2022-12-18T02:45:20.452Z,73.22
2022-12-18T02:47:49.654Z,73.89
2022-12-18T02:50:45.625Z,74.56
2022-12-18T02:53:31.530Z,74.23
2022-12-18T02:56:14.703Z,74.10
2022-12-18T02:59:00.977Z,73.07
2022-12-18T03:01:46.446Z,72.32
2022-12-18T03:04:20.190Z,72.13
2022-12-18T03:06:50.735Z,71.74
2022-12-18T03:09:23.661Z,71.74
2022-12-18T03:11:57.257Z,72.30
2022-12-18T03:14:25.118Z,72.07
2022-12-18T03:16:54.973Z,72.38
2022-12-18T03:19:27.112Z,72.97
2022-12-18T03:21:57.004Z,73.14
2022-12-18T03:24:25.470Z,72.87
2022-12-18T03:26:55.661Z,72.68
2022-12-18T03:29:37.047Z,71.89
2022-12-18T03:32:10.605Z,71.83
2022-12-18T03:34:41.440Z,71.17
2022-12-18T03:37:08.045Z,71.09
2022-12-18T03:39:37.529Z,70.99
2022-12-18T03:42:16.432Z,70.37
2022-12-18T03:45:14.912Z,69.97
2022-12-18T03:47:58.456Z,69.90
2022-12-18T03:50:36.792Z,70.13
2022-12-18T03:53:16.939Z,70.85
2022-12-18T03:55:44.814Z,70.50
2022-12-18T03:58:14.746Z,70.81
2022-12-18T04:00:42.399Z,71.41
2022-12-18T04:03:11.023Z,71.34
2022-12-18T04:05:38.347Z,71.92
2022-12-18T04:08:06.127Z,71.96
2022-12-18T04:10:32.560Z,71.68
2022-12-18T04:12:59.413Z,71.42
2022-12-18T04:15:26.086Z,71.57
2022-12-18T04:17:52.522Z,72.09
2022-12-18T04:20:19.335Z,72.13
2022-12-18T04:22:45.790Z,71.82
2022-12-18T04:25:13.110Z,71.54
2022-12-18T04:27:39.471Z,71.52
2022-12-18T04:30:06.672Z,71.26
2022-12-18T04:32:34.685Z,71.37
2022-12-18T04:35:01.256Z,71.02
2022-12-18T04:37:27.961Z,70.97
2022-12-18T04:39:54.745Z,70.85
2022-12-18T04:42:21.207Z,71.06
2022-12-18T04:44:47.772Z,70.83
2022-12-18T04:47:14.111Z,70.93
2022-12-18T04:49:40.524Z,70.82
2022-12-18T04:52:07.101Z,70.92
2022-12-18T04:54:33.472Z,70.85
2022-12-18T04:56:59.882Z,71.01
2022-12-18T04:59:26.212Z,71.12
2022-12-18T05:01:52.691Z,71.02
2022-12-18T05:04:19.138Z,71.53
2022-12-18T05:06:46.320Z,71.79
2022-12-18T05:09:12.978Z,71.77
2022-12-18T05:11:39.324Z,71.08
2022-12-18T05:14:05.882Z,70.59
2022-12-18T05:16:32.375Z,70.47
2022-12-18T05:18:59.133Z,70.43
2022-12-18T05:21:25.583Z,70.43
2022-12-18T05:23:52.244Z,70.53
2022-12-18T05:26:19.453Z,70.24
2022-12-18T05:28:46.210Z,70.07
2022-12-18T05:31:13.288Z,69.94
2022-12-18T05:33:40.094Z,70.28
2022-12-18T05:36:08.839Z,70.43
2022-12-18T05:38:38.332Z,70.46
2022-12-18T05:41:05.987Z,70.68
2022-12-18T05:43:32.721Z,70.44
2022-12-18T05:45:59.077Z,70.27
2022-12-18T05:48:25.711Z,70.39
2022-12-18T05:50:52.324Z,70.23
2022-12-18T05:53:20.735Z,70.13
2022-12-18T05:55:47.884Z,69.99
2022-12-18T05:58:15.181Z,69.35
2022-12-18T06:00:43.759Z,69.28
2022-12-18T06:03:11.909Z,69.02
2022-12-18T06:05:40.871Z,69.06
2022-12-18T06:08:07.222Z,68.95
2022-12-18T06:10:34.418Z,69.15
2022-12-18T06:13:01.520Z,69.02
2022-12-18T06:15:28.105Z,69.19
2022-12-18T06:17:54.427Z,69.25
2022-12-18T06:20:21.800Z,69.58
2022-12-18T06:22:48.340Z,69.58
2022-12-18T06:25:15.000Z,69.80
2022-12-18T06:27:41.620Z,69.68
2022-12-18T06:30:10.034Z,70.25
2022-12-18T06:32:36.755Z,69.94
2022-12-18T06:35:03.249Z,70.21
2022-12-18T06:37:32.529Z,69.90
2022-12-18T06:39:58.904Z,69.77
2022-12-18T06:42:25.961Z,69.98
2022-12-18T06:44:52.665Z,70.14
2022-12-18T06:47:19.792Z,69.89
2022-12-18T06:49:46.093Z,70.00
2022-12-18T06:52:12.435Z,70.03
2022-12-18T06:54:38.951Z,69.63
2022-12-18T06:57:05.298Z,69.28
2022-12-18T06:59:32.140Z,69.67
2022-12-18T07:01:58.586Z,69.42
2022-12-18T07:04:32.679Z,69.27
2022-12-18T07:06:59.120Z,69.58
2022-12-18T07:09:25.549Z,69.73
2022-12-18T07:11:52.870Z,69.60
2022-12-18T07:14:19.291Z,69.29
2022-12-18T07:16:46.093Z,68.95
2022-12-18T07:19:12.526Z,69.24
2022-12-18T07:21:39.468Z,69.65
2022-12-18T07:24:06.613Z,69.38
2022-12-18T07:26:33.252Z,69.44
2022-12-18T07:28:59.657Z,69.35
2022-12-18T07:31:27.347Z,69.42
2022-12-18T07:33:54.284Z,69.38
2022-12-18T07:36:21.192Z,69.50
2022-12-18T07:38:49.373Z,69.49
2022-12-18T07:41:16.067Z,69.68
2022-12-18T07:43:43.370Z,69.60
2022-12-18T07:46:11.069Z,70.01
2022-12-18T07:48:39.596Z,69.91
2022-12-18T07:51:07.744Z,70.16
2022-12-18T07:53:36.011Z,69.98
2022-12-18T07:56:26.514Z,69.92
2022-12-18T07:58:52.291Z,69.70
2022-12-18T08:01:18.926Z,69.36
2022-12-18T08:03:45.855Z,69.94
2022-12-18T08:06:12.402Z,70.08
2022-12-18T08:08:38.839Z,70.06
2022-12-18T08:11:05.762Z,70.16
2022-12-18T08:13:32.445Z,70.50
2022-12-18T08:16:00.496Z,70.78
2022-12-18T08:18:26.924Z,70.46
2022-12-18T08:20:53.326Z,70.51
2022-12-18T08:23:20.324Z,70.73
2022-12-18T08:25:46.904Z,70.89
2022-12-18T08:28:13.392Z,71.04
2022-12-18T08:30:39.779Z,70.91
2022-12-18T08:33:07.138Z,71.16
2022-12-18T08:35:42.508Z,70.64
2022-12-18T08:38:11.875Z,70.64
2022-12-18T08:40:38.511Z,69.38
2022-12-18T08:43:04.864Z,66.99
2022-12-18T08:45:31.211Z,66.09
2022-12-18T08:47:57.633Z,64.89
2022-12-18T08:50:24.023Z,64.64
2022-12-18T08:52:50.590Z,65.53
2022-12-18T08:55:17.158Z,65.80
2022-12-18T08:57:43.815Z,65.53
2022-12-18T09:00:11.708Z,65.09
2022-12-18T09:02:38.726Z,61.74
2022-12-18T09:05:05.647Z,61.11
2022-12-18T09:07:32.195Z,61.70
2022-12-18T09:09:58.638Z,62.11
2022-12-18T09:12:25.056Z,60.97
2022-12-18T09:14:51.488Z,60.47
2022-12-18T09:17:17.961Z,60.10
2022-12-18T09:19:44.584Z,59.15
2022-12-18T09:22:10.978Z,59.06
2022-12-18T09:24:37.377Z,58.19
2022-12-18T09:27:03.726Z,58.58
2022-12-18T09:29:30.318Z,58.93
2022-12-18T09:31:56.805Z,59.91
2022-12-18T09:34:23.131Z,60.77
2022-12-18T09:36:49.576Z,61.01
2022-12-18T09:39:17.364Z,60.75
2022-12-18T09:41:56.857Z,61.07
2022-12-18T09:44:29.542Z,61.04
2022-12-18T09:47:17.574Z,61.58
2022-12-18T09:49:46.163Z,61.68
2022-12-18T09:52:18.587Z,61.83
2022-12-18T09:54:52.557Z,62.32
2022-12-18T09:57:23.116Z,62.81
2022-12-18T09:59:58.207Z,62.25
2022-12-18T10:02:26.024Z,62.17
2022-12-18T10:05:25.915Z,62.54
2022-12-18T10:08:26.432Z,62.37
2022-12-18T10:11:12.997Z,61.73
2022-12-18T10:14:09.018Z,61.76
2022-12-18T10:16:43.881Z,60.97
2022-12-18T10:19:52.492Z,61.33
2022-12-18T10:22:32.005Z,61.01
2022-12-18T10:25:16.976Z,61.32
2022-12-18T10:27:43.317Z,60.93
2022-12-18T10:30:18.259Z,60.29
2022-12-18T10:32:44.989Z,58.33
2022-12-18T10:35:24.803Z,56.85
2022-12-18T10:38:11.649Z,56.63
2022-12-18T10:41:00.461Z,55.95
2022-12-18T10:43:37.715Z,56.78
2022-12-18T10:46:10.134Z,56.80
2022-12-18T10:48:48.528Z,57.00
2022-12-18T10:51:27.361Z,56.60
2022-12-18T10:54:06.437Z,55.38
2022-12-18T10:56:36.867Z,53.43
2022-12-18T10:59:06.271Z,52.53
2022-12-18T11:01:53.983Z,51.21
2022-12-18T11:04:24.120Z,50.26
2022-12-18T11:07:06.397Z,48.55
2022-12-18T11:09:38.089Z,48.46
2022-12-18T11:12:23.755Z,46.66
2022-12-18T11:14:52.724Z,45.67
2022-12-18T11:17:34.048Z,43.83
2022-12-18T11:20:03.010Z,43.57
2022-12-18T11:22:35.966Z,40.73
2022-12-18T11:25:32.590Z,41.41
2022-12-18T11:28:00.045Z,43.41
2022-12-18T11:30:30.650Z,42.76
2022-12-18T11:33:03.953Z,42.57
2022-12-18T11:36:00.684Z,43.61
2022-12-18T11:38:35.537Z,42.79
2022-12-18T11:41:17.399Z,44.64
2022-12-18T11:43:53.934Z,46.39
2022-12-18T11:46:31.339Z,47.42
2022-12-18T11:49:28.118Z,48.05
2022-12-18T11:52:23.833Z,48.06
2022-12-18T11:54:56.540Z,49.68
2022-12-18T11:57:56.391Z,50.30
2022-12-18T12:00:24.337Z,51.87
2022-12-18T12:03:03.119Z,51.55
2022-12-18T12:05:54.306Z,51.66
2022-12-18T12:08:21.556Z,52.51
2022-12-18T12:10:56.986Z,54.97
2022-12-18T12:13:27.330Z,55.94
2022-12-18T12:16:24.830Z,55.38
2022-12-18T12:18:57.241Z,55.49
2022-12-18T12:21:41.389Z,56.17
2022-12-18T12:24:32.349Z,56.54
2022-12-18T12:27:21.493Z,57.70
2022-12-18T12:30:00.089Z,57.92
2022-12-18T12:32:29.449Z,57.79
2022-12-18T12:35:09.400Z,57.67
2022-12-18T12:37:53.089Z,58.27
2022-12-18T12:40:50.844Z,58.74
2022-12-18T12:43:35.596Z,58.84
2022-12-18T12:46:14.375Z,58.90
2022-12-18T12:49:03.416Z,59.16
2022-12-18T12:51:34.653Z,58.95
2022-12-18T12:54:04.121Z,59.02
2022-12-18T12:56:58.109Z,58.59
2022-12-18T12:59:38.750Z,58.40
2022-12-18T13:02:29.896Z,58.49
2022-12-18T13:05:15.662Z,59.05
2022-12-18T13:07:52.668Z,59.21
2022-12-18T13:10:19.251Z,59.81
2022-12-18T13:16:09.202Z,60.88
2022-12-18T13:18:36.649Z,60.82
2022-12-18T13:21:16.388Z,61.54
2022-12-18T13:23:44.007Z,61.80
2022-12-18T13:26:24.790Z,62.00
2022-12-18T13:28:55.564Z,62.39
2022-12-18T13:31:31.111Z,63.08
2022-12-18T13:34:29.300Z,63.33
2022-12-18T13:37:17.926Z,63.49
2022-12-18T13:39:44.438Z,63.93
2022-12-18T13:42:10.934Z,64.18
2022-12-18T13:44:41.394Z,64.32
2022-12-18T13:47:32.327Z,64.53
2022-12-18T13:49:59.510Z,64.55
2022-12-18T13:52:28.985Z,64.94
2022-12-18T13:54:58.707Z,65.02
2022-12-18T13:57:37.826Z,65.19
2022-12-18T14:00:33.364Z,65.52
2022-12-18T14:03:01.086Z,65.38
2022-12-18T14:05:33.819Z,65.11
2022-12-18T14:08:05.725Z,65.57
2022-12-18T14:10:47.961Z,64.99
2022-12-18T14:13:42.264Z,65.02
2022-12-18T14:16:15.207Z,65.15
2022-12-18T14:18:56.884Z,65.62
2022-12-18T14:21:31.183Z,65.60
2022-12-18T14:24:22.574Z,65.49
2022-12-18T14:26:51.087Z,65.79
2022-12-18T14:29:28.859Z,65.96
2022-12-18T14:32:16.584Z,65.75
2022-12-18T14:34:49.640Z,65.60
2022-12-18T14:37:21.004Z,66.41
2022-12-18T14:40:14.091Z,66.53
2022-12-18T14:42:41.094Z,66.55
2022-12-18T14:45:42.626Z,67.41
2022-12-18T14:48:12.738Z,67.35
2022-12-18T14:50:40.890Z,67.41
2022-12-18T14:53:21.837Z,67.80
2022-12-18T14:55:49.724Z,68.03
2022-12-18T14:58:18.543Z,68.12
2022-12-18T15:00:45.119Z,67.88
2022-12-18T15:03:15.977Z,68.21
2022-12-18T15:05:42.586Z,67.61
2022-12-18T15:08:29.639Z,67.87
2022-12-18T15:10:56.054Z,68.11
2022-12-18T15:13:24.438Z,68.23
2022-12-18T15:15:52.251Z,68.87
2022-12-18T15:18:21.636Z,69.10
2022-12-18T15:20:55.376Z,69.17
2022-12-18T15:23:34.173Z,68.93
2022-12-18T15:26:02.393Z,68.81
2022-12-18T15:28:37.480Z,68.99
2022-12-18T15:31:07.137Z,68.93
2022-12-18T15:33:37.381Z,69.13
2022-12-18T15:36:09.100Z,69.19
2022-12-18T15:38:35.883Z,69.00
2022-12-18T15:41:02.908Z,69.02
2022-12-18T15:43:30.033Z,69.30
2022-12-18T15:45:56.558Z,69.46
2022-12-18T15:48:23.833Z,69.57
2022-12-18T15:50:56.162Z,69.42
2022-12-18T15:53:22.548Z,69.72
2022-12-18T15:55:48.981Z,69.89
2022-12-18T15:58:15.620Z,70.10
2022-12-18T16:00:43.398Z,70.47
2022-12-18T16:03:11.531Z,70.73
2022-12-18T16:05:37.987Z,70.79
2022-12-18T16:08:05.137Z,71.05
2022-12-18T16:10:31.744Z,70.82
2022-12-18T16:12:58.296Z,71.14
2022-12-18T16:15:25.172Z,71.22
2022-12-18T16:17:51.928Z,71.25
2022-12-18T16:20:22.895Z,71.58
2022-12-18T16:22:50.135Z,71.15
2022-12-18T16:25:28.455Z,71.25
2022-12-18T16:27:56.204Z,70.76
2022-12-18T16:30:27.975Z,71.02
2022-12-18T16:32:55.982Z,70.68
2022-12-18T16:35:22.730Z,70.56
2022-12-18T16:37:49.160Z,70.54
2022-12-18T16:40:17.347Z,70.78
2022-12-18T16:42:46.022Z,70.70
2022-12-18T16:45:18.866Z,71.10
2022-12-18T16:47:45.715Z,71.16
2022-12-18T16:50:12.812Z,71.12
2022-12-18T16:52:40.617Z,70.57
2022-12-18T16:55:08.017Z,70.25
2022-12-18T16:57:34.392Z,70.22
2022-12-18T17:00:05.287Z,70.33
2022-12-18T17:02:33.143Z,70.11
2022-12-18T17:04:59.757Z,70.06
2022-12-18T17:07:27.052Z,69.36
2022-12-18T17:09:54.253Z,69.48
2022-12-18T17:12:21.995Z,69.95
2022-12-18T17:14:48.630Z,69.75
2022-12-18T17:17:23.774Z,69.99
2022-12-18T17:20:02.228Z,70.05
2022-12-18T17:22:28.831Z,70.42
2022-12-18T17:24:55.144Z,71.16
2022-12-18T17:27:21.538Z,70.93
2022-12-18T17:29:48.934Z,70.83
2022-12-18T17:32:16.458Z,71.19
2022-12-18T17:34:42.945Z,70.80
2022-12-18T17:37:09.481Z,70.77
2022-12-18T17:39:36.248Z,70.48
2022-12-18T17:42:02.777Z,71.06
2022-12-18T17:44:29.307Z,71.00
2022-12-18T17:46:55.797Z,71.24
2022-12-18T17:49:22.272Z,71.08
2022-12-18T17:51:48.973Z,71.17
2022-12-18T17:54:15.491Z,71.09
2022-12-18T17:56:41.984Z,71.15
2022-12-18T17:59:09.166Z,71.19
2022-12-18T18:01:40.955Z,71.63
2022-12-18T18:04:10.550Z,70.82
2022-12-18T18:06:39.104Z,71.52
2022-12-18T18:09:06.725Z,71.30
2022-12-18T18:11:39.100Z,72.24
2022-12-18T18:14:10.911Z,72.28
2022-12-18T18:16:43.520Z,72.45
2022-12-18T18:19:13.046Z,72.69
2022-12-18T18:21:41.861Z,72.36
2022-12-18T18:24:09.918Z,72.42
2022-12-18T18:26:37.723Z,71.89
2022-12-18T18:29:07.279Z,71.56
2022-12-18T18:31:34.616Z,71.43
2022-12-18T18:34:07.198Z,71.49
2022-12-18T18:36:34.542Z,71.79
2022-12-18T18:39:01.532Z,71.90
2022-12-18T18:41:27.880Z,71.99
2022-12-18T18:43:55.803Z,72.08
2022-12-18T18:46:22.993Z,71.85
2022-12-18T18:48:49.552Z,72.05
2022-12-18T18:51:21.475Z,71.79
2022-12-18T18:53:50.668Z,71.90
2022-12-18T18:56:56.379Z,71.14
2022-12-18T18:59:05.770Z,71.32
2022-12-18T19:01:32.320Z,71.42
2022-12-18T19:03:59.174Z,71.17
2022-12-18T19:06:27.742Z,71.49
2022-12-18T19:08:55.977Z,72.06
2022-12-18T19:11:23.755Z,71.57
2022-12-18T19:13:50.123Z,72.15
2022-12-18T19:16:16.586Z,72.82
2022-12-18T19:18:43.488Z,72.88
2022-12-18T19:21:11.152Z,73.04
2022-12-18T19:23:37.619Z,73.08
2022-12-18T19:26:26.977Z,73.14
2022-12-18T19:28:52.970Z,73.00
2022-12-18T19:31:24.449Z,72.89
2022-12-18T19:33:52.607Z,72.98
2022-12-18T19:36:30.870Z,73.14
2022-12-18T19:38:59.634Z,73.31
2022-12-18T19:41:29.133Z,73.57
2022-12-18T19:44:07.845Z,73.44
2022-12-18T19:46:35.731Z,72.82
2022-12-18T19:49:02.823Z,68.84
2022-12-18T19:51:31.073Z,65.30
2022-12-18T19:54:01.229Z,64.01
2022-12-18T19:56:31.003Z,61.95
2022-12-18T19:58:57.524Z,63.14
2022-12-18T20:01:25.997Z,62.89
2022-12-18T20:03:54.484Z,62.04
2022-12-18T20:06:29.723Z,60.62
2022-12-18T20:09:00.539Z,60.29
2022-12-18T20:11:29.193Z,58.98
2022-12-18T20:13:55.761Z,58.96
2022-12-18T20:16:23.242Z,60.56
2022-12-18T20:18:49.669Z,60.16
2022-12-18T20:21:16.188Z,61.46
2022-12-18T20:23:43.305Z,58.10
2022-12-18T20:26:10.753Z,59.61
2022-12-18T20:28:37.829Z,60.96
2022-12-18T20:31:07.688Z,60.12
2022-12-18T20:33:36.048Z,60.53
2022-12-18T20:36:05.939Z,59.10
2022-12-18T20:38:34.287Z,59.15
2022-12-18T20:41:02.112Z,60.11
2022-12-18T20:43:29.462Z,59.41
2022-12-18T20:46:07.996Z,59.67
2022-12-18T20:48:34.528Z,59.93
2022-12-18T20:51:04.023Z,58.73
2022-12-18T20:53:32.029Z,59.58
2022-12-18T20:55:58.682Z,59.42
2022-12-18T20:58:25.411Z,59.32
2022-12-18T21:01:03.985Z,57.89
2022-12-18T21:03:30.513Z,56.78
2022-12-18T21:05:56.926Z,57.29
2022-12-18T21:08:23.415Z,57.59
2022-12-18T21:10:49.754Z,57.00
2022-12-18T21:13:16.446Z,57.52
2022-12-18T21:15:43.550Z,58.31
2022-12-18T21:18:09.973Z,57.95
2022-12-18T21:20:36.885Z,57.79
2022-12-18T21:23:10.425Z,56.06
2022-12-18T21:25:43.505Z,55.83
2022-12-18T21:28:09.896Z,56.19
2022-12-18T21:30:36.439Z,55.65
2022-12-18T21:33:02.977Z,55.73
2022-12-18T21:35:29.546Z,56.45
2022-12-18T21:37:58.558Z,57.21
2022-12-18T21:40:25.193Z,57.64
2022-12-18T21:42:51.621Z,56.42
2022-12-18T21:45:18.318Z,56.32
2022-12-18T21:47:44.838Z,56.30
2022-12-18T21:50:11.203Z,56.35
2022-12-18T21:52:37.677Z,57.19
2022-12-18T21:55:09.581Z,57.73
2022-12-18T21:57:38.204Z,57.55
2022-12-18T22:00:06.000Z,57.48
2022-12-18T22:02:32.920Z,55.45
2022-12-18T22:04:59.407Z,55.47
2022-12-18T22:07:25.821Z,55.76
2022-12-18T22:09:52.329Z,57.44
2022-12-18T22:12:18.662Z,59.25
2022-12-18T22:14:45.053Z,60.34
2022-12-18T22:17:11.453Z,62.01
2022-12-18T22:19:42.857Z,62.06
2022-12-18T22:22:10.197Z,57.77
2022-12-18T22:24:36.725Z,55.49
2022-12-18T22:27:03.157Z,56.87
2022-12-18T22:29:29.637Z,54.84
2022-12-18T22:31:58.179Z,54.94
2022-12-18T22:34:24.902Z,55.39
2022-12-18T22:36:51.721Z,55.82
2022-12-18T22:39:21.501Z,55.74
2022-12-18T22:41:48.516Z,55.46
2022-12-18T22:44:15.220Z,55.16
2022-12-18T22:46:50.797Z,56.03
2022-12-18T22:49:25.773Z,55.77
2022-12-18T22:51:53.189Z,54.84
2022-12-18T22:54:21.012Z,55.15
2022-12-18T22:56:47.549Z,53.73
2022-12-18T22:59:19.673Z,53.98
2022-12-18T23:01:47.375Z,53.94
2022-12-18T23:04:15.977Z,53.36
2022-12-18T23:06:43.276Z,54.07
2022-12-18T23:09:18.423Z,54.86
2022-12-18T23:11:45.773Z,54.97
2022-12-18T23:14:13.254Z,55.84
2022-12-18T23:16:40.170Z,56.70
2022-12-18T23:19:08.060Z,56.87
2022-12-18T23:21:35.266Z,56.97
2022-12-18T23:24:01.980Z,56.82
2022-12-18T23:26:28.616Z,57.52
2022-12-18T23:28:55.250Z,57.20
2022-12-18T23:31:31.046Z,57.95
2022-12-18T23:33:58.807Z,57.60
2022-12-18T23:36:25.999Z,58.07
2022-12-18T23:38:55.313Z,58.45
2022-12-18T23:41:24.360Z,56.54
2022-12-18T23:43:51.233Z,55.82
2022-12-18T23:46:23.935Z,55.56
2022-12-18T23:48:51.309Z,56.92
2022-12-18T23:51:20.206Z,56.53
2022-12-18T23:53:46.590Z,55.54
2022-12-18T23:56:13.399Z,55.76
2022-12-18T23:58:40.240Z,55.68
